sensor_id;sensor_type;location;lat;lon;timestamp;P1;durP1;ratioP1;P2;durP2;ratioP2
24233;SDS011;12365;43.554;1.388;2023-01-09T00:00:59;3.45;;;0.80;;
24233;SDS011;12365;43.554;1.388;2023-01-09T00:03:24;2.92;;;0.80;;
24233;SDS011;12365;43.554;1.388;2023-01-09T00:05:50;5.43;;;1.10;;
24233;SDS011;12365;43.554;1.388;2023-01-09T00:08:15;5.80;;;1.02;;
24233;SDS011;12365;43.554;1.388;2023-01-09T00:10:41;4.28;;;1.02;;
24233;SDS011;12365;43.554;1.388;2023-01-09T00:13:08;3.45;;;0.98;;
24233;SDS011;12365;43.554;1.388;2023-01-09T00:15:35;4.78;;;0.73;;
24233;SDS011;12365;43.554;1.388;2023-01-09T00:18:00;4.30;;;0.90;;
24233;SDS011;12365;43.554;1.388;2023-01-09T00:20:26;4.78;;;0.82;;
24233;SDS011;12365;43.554;1.388;2023-01-09T00:22:51;5.22;;;1.00;;
24233;SDS011;12365;43.554;1.388;2023-01-09T00:25:17;4.35;;;1.08;;
24233;SDS011;12365;43.554;1.388;2023-01-09T00:27:42;4.88;;;0.80;;
24233;SDS011;12365;43.554;1.388;2023-01-09T00:30:08;4.60;;;0.90;;
24233;SDS011;12365;43.554;1.388;2023-01-09T00:32:34;2.47;;;0.77;;
24233;SDS011;12365;43.554;1.388;2023-01-09T00:34:59;4.40;;;0.80;;
24233;SDS011;12365;43.554;1.388;2023-01-09T00:37:25;3.70;;;0.80;;
24233;SDS011;12365;43.554;1.388;2023-01-09T00:39:50;3.97;;;1.00;;
24233;SDS011;12365;43.554;1.388;2023-01-09T00:42:18;3.67;;;0.90;;
24233;SDS011;12365;43.554;1.388;2023-01-09T00:45:07;2.67;;;0.50;;
24233;SDS011;12365;43.554;1.388;2023-01-09T00:47:36;4.63;;;1.20;;
24233;SDS011;12365;43.554;1.388;2023-01-09T00:50:05;5.43;;;0.95;;
24233;SDS011;12365;43.554;1.388;2023-01-09T00:52:36;6.47;;;1.20;;
24233;SDS011;12365;43.554;1.388;2023-01-09T00:55:02;8.75;;;1.00;;
24233;SDS011;12365;43.554;1.388;2023-01-09T00:57:29;3.80;;;0.82;;
24233;SDS011;12365;43.554;1.388;2023-01-09T00:59:55;4.78;;;1.10;;
24233;SDS011;12365;43.554;1.388;2023-01-09T01:02:21;3.17;;;1.00;;
24233;SDS011;12365;43.554;1.388;2023-01-09T01:04:47;5.10;;;1.10;;
24233;SDS011;12365;43.554;1.388;2023-01-09T01:07:31;6.82;;;1.00;;
24233;SDS011;12365;43.554;1.388;2023-01-09T01:10:03;6.65;;;1.13;;
24233;SDS011;12365;43.554;1.388;2023-01-09T01:12:34;7.00;;;1.15;;
24233;SDS011;12365;43.554;1.388;2023-01-09T01:15:00;7.47;;;1.27;;
24233;SDS011;12365;43.554;1.388;2023-01-09T01:17:26;4.05;;;1.10;;
24233;SDS011;12365;43.554;1.388;2023-01-09T01:19:51;4.95;;;1.23;;
24233;SDS011;12365;43.554;1.388;2023-01-09T01:22:17;5.55;;;0.90;;
24233;SDS011;12365;43.554;1.388;2023-01-09T01:24:42;5.43;;;1.05;;
24233;SDS011;12365;43.554;1.388;2023-01-09T01:27:07;5.50;;;0.90;;
24233;SDS011;12365;43.554;1.388;2023-01-09T01:29:33;4.43;;;0.82;;
24233;SDS011;12365;43.554;1.388;2023-01-09T01:31:58;5.10;;;1.00;;
24233;SDS011;12365;43.554;1.388;2023-01-09T01:34:24;5.47;;;1.55;;
24233;SDS011;12365;43.554;1.388;2023-01-09T01:36:49;5.82;;;1.02;;
24233;SDS011;12365;43.554;1.388;2023-01-09T01:39:15;4.00;;;1.10;;
24233;SDS011;12365;43.554;1.388;2023-01-09T01:41:40;3.80;;;1.10;;
24233;SDS011;12365;43.554;1.388;2023-01-09T01:44:53;10.32;;;1.45;;
24233;SDS011;12365;43.554;1.388;2023-01-09T01:47:09;5.15;;;1.20;;
24233;SDS011;12365;43.554;1.388;2023-01-09T01:49:35;8.10;;;1.30;;
24233;SDS011;12365;43.554;1.388;2023-01-09T01:52:01;6.40;;;1.27;;
24233;SDS011;12365;43.554;1.388;2023-01-09T01:54:27;9.68;;;1.42;;
24233;SDS011;12365;43.554;1.388;2023-01-09T01:56:56;4.72;;;0.95;;
24233;SDS011;12365;43.554;1.388;2023-01-09T01:59:27;5.43;;;1.27;;
24233;SDS011;12365;43.554;1.388;2023-01-09T02:01:57;5.80;;;1.25;;
24233;SDS011;12365;43.554;1.388;2023-01-09T02:04:25;4.55;;;1.15;;
24233;SDS011;12365;43.554;1.388;2023-01-09T02:06:53;9.10;;;1.67;;
24233;SDS011;12365;43.554;1.388;2023-01-09T02:09:20;9.70;;;1.50;;
24233;SDS011;12365;43.554;1.388;2023-01-09T02:11:50;8.18;;;1.70;;
24233;SDS011;12365;43.554;1.388;2023-01-09T02:14:22;10.38;;;1.50;;
24233;SDS011;12365;43.554;1.388;2023-01-09T02:17:13;6.68;;;1.40;;
24233;SDS011;12365;43.554;1.388;2023-01-09T02:23:04;8.50;;;1.50;;
24233;SDS011;12365;43.554;1.388;2023-01-09T02:31:12;8.68;;;1.40;;
24233;SDS011;12365;43.554;1.388;2023-01-09T02:33:59;7.70;;;1.38;;
24233;SDS011;12365;43.554;1.388;2023-01-09T02:41:41;8.20;;;1.47;;
24233;SDS011;12365;43.554;1.388;2023-01-09T02:44:21;10.68;;;1.40;;
24233;SDS011;12365;43.554;1.388;2023-01-09T02:49:28;8.90;;;1.48;;
24233;SDS011;12365;43.554;1.388;2023-01-09T03:08:57;10.68;;;1.63;;
24233;SDS011;12365;43.554;1.388;2023-01-09T03:11:27;14.18;;;1.52;;
24233;SDS011;12365;43.554;1.388;2023-01-09T03:13:59;5.93;;;1.52;;
24233;SDS011;12365;43.554;1.388;2023-01-09T03:16:34;8.52;;;1.40;;
24233;SDS011;12365;43.554;1.388;2023-01-09T03:19:04;6.28;;;1.30;;
24233;SDS011;12365;43.554;1.388;2023-01-09T03:21:32;8.68;;;1.77;;
24233;SDS011;12365;43.554;1.388;2023-01-09T03:23:59;9.75;;;1.50;;
24233;SDS011;12365;43.554;1.388;2023-01-09T03:26:26;9.05;;;1.15;;
24233;SDS011;12365;43.554;1.388;2023-01-09T03:28:53;6.75;;;1.40;;
24233;SDS011;12365;43.554;1.388;2023-01-09T03:31:19;6.45;;;1.25;;
24233;SDS011;12365;43.554;1.388;2023-01-09T03:33:45;7.65;;;1.30;;
24233;SDS011;12365;43.554;1.388;2023-01-09T03:36:11;8.18;;;1.27;;
24233;SDS011;12365;43.554;1.388;2023-01-09T03:38:37;8.52;;;1.23;;
24233;SDS011;12365;43.554;1.388;2023-01-09T03:41:03;10.57;;;1.65;;
24233;SDS011;12365;43.554;1.388;2023-01-09T03:43:28;9.07;;;1.65;;
24233;SDS011;12365;43.554;1.388;2023-01-09T03:45:54;8.75;;;1.58;;
24233;SDS011;12365;43.554;1.388;2023-01-09T03:48:20;12.55;;;1.63;;
24233;SDS011;12365;43.554;1.388;2023-01-09T03:50:49;9.02;;;1.35;;
24233;SDS011;12365;43.554;1.388;2023-01-09T03:53:16;5.60;;;1.08;;
24233;SDS011;12365;43.554;1.388;2023-01-09T03:55:44;10.85;;;1.45;;
24233;SDS011;12365;43.554;1.388;2023-01-09T03:58:11;8.98;;;1.50;;
24233;SDS011;12365;43.554;1.388;2023-01-09T04:00:36;9.05;;;1.80;;
24233;SDS011;12365;43.554;1.388;2023-01-09T04:03:03;8.80;;;1.40;;
24233;SDS011;12365;43.554;1.388;2023-01-09T04:05:28;6.85;;;1.40;;
24233;SDS011;12365;43.554;1.388;2023-01-09T04:07:54;9.98;;;1.55;;
24233;SDS011;12365;43.554;1.388;2023-01-09T04:10:19;8.50;;;1.50;;
24233;SDS011;12365;43.554;1.388;2023-01-09T04:12:44;9.55;;;1.40;;
24233;SDS011;12365;43.554;1.388;2023-01-09T04:15:10;10.45;;;1.65;;
24233;SDS011;12365;43.554;1.388;2023-01-09T04:17:35;7.65;;;1.45;;
24233;SDS011;12365;43.554;1.388;2023-01-09T04:20:01;12.25;;;1.55;;
24233;SDS011;12365;43.554;1.388;2023-01-09T04:22:26;6.28;;;1.40;;
24233;SDS011;12365;43.554;1.388;2023-01-09T04:24:51;7.20;;;1.20;;
24233;SDS011;12365;43.554;1.388;2023-01-09T04:27:17;9.35;;;1.38;;
24233;SDS011;12365;43.554;1.388;2023-01-09T04:29:42;7.88;;;1.40;;
24233;SDS011;12365;43.554;1.388;2023-01-09T04:32:08;7.53;;;1.35;;
24233;SDS011;12365;43.554;1.388;2023-01-09T04:34:33;6.78;;;1.10;;
24233;SDS011;12365;43.554;1.388;2023-01-09T04:36:58;8.98;;;1.73;;
24233;SDS011;12365;43.554;1.388;2023-01-09T04:39:24;6.30;;;1.25;;
24233;SDS011;12365;43.554;1.388;2023-01-09T04:41:49;8.30;;;1.38;;
24233;SDS011;12365;43.554;1.388;2023-01-09T04:44:21;8.10;;;1.45;;
24233;SDS011;12365;43.554;1.388;2023-01-09T04:46:51;9.93;;;1.13;;
24233;SDS011;12365;43.554;1.388;2023-01-09T04:49:17;12.55;;;1.63;;
24233;SDS011;12365;43.554;1.388;2023-01-09T04:51:43;8.63;;;1.67;;
24233;SDS011;12365;43.554;1.388;2023-01-09T04:54:08;8.40;;;1.52;;
24233;SDS011;12365;43.554;1.388;2023-01-09T04:56:34;11.45;;;1.50;;
24233;SDS011;12365;43.554;1.388;2023-01-09T04:59:00;9.35;;;1.67;;
24233;SDS011;12365;43.554;1.388;2023-01-09T05:01:26;6.95;;;1.30;;
24233;SDS011;12365;43.554;1.388;2023-01-09T05:03:52;11.32;;;1.38;;
24233;SDS011;12365;43.554;1.388;2023-01-09T05:06:17;7.20;;;1.30;;
24233;SDS011;12365;43.554;1.388;2023-01-09T05:08:43;8.88;;;1.65;;
24233;SDS011;12365;43.554;1.388;2023-01-09T05:11:08;8.82;;;1.45;;
24233;SDS011;12365;43.554;1.388;2023-01-09T05:13:33;9.50;;;1.50;;
24233;SDS011;12365;43.554;1.388;2023-01-09T05:15:59;8.02;;;1.45;;
24233;SDS011;12365;43.554;1.388;2023-01-09T05:18:24;5.93;;;1.27;;
24233;SDS011;12365;43.554;1.388;2023-01-09T05:20:50;6.65;;;1.17;;
24233;SDS011;12365;43.554;1.388;2023-01-09T05:23:15;4.68;;;1.00;;
24233;SDS011;12365;43.554;1.388;2023-01-09T05:25:41;3.80;;;0.98;;
24233;SDS011;12365;43.554;1.388;2023-01-09T05:28:06;5.10;;;1.08;;
24233;SDS011;12365;43.554;1.388;2023-01-09T05:30:31;6.68;;;0.93;;
24233;SDS011;12365;43.554;1.388;2023-01-09T05:32:57;5.93;;;1.00;;
24233;SDS011;12365;43.554;1.388;2023-01-09T05:35:22;7.78;;;1.45;;
24233;SDS011;12365;43.554;1.388;2023-01-09T05:37:48;6.03;;;1.02;;
24233;SDS011;12365;43.554;1.388;2023-01-09T05:40:13;6.45;;;1.30;;
24233;SDS011;12365;43.554;1.388;2023-01-09T05:42:38;5.53;;;1.08;;
24233;SDS011;12365;43.554;1.388;2023-01-09T05:45:04;10.27;;;1.35;;
24233;SDS011;12365;43.554;1.388;2023-01-09T05:47:30;7.82;;;1.40;;
24233;SDS011;12365;43.554;1.388;2023-01-09T05:49:56;7.07;;;1.27;;
24233;SDS011;12365;43.554;1.388;2023-01-09T05:52:22;6.50;;;1.23;;
24233;SDS011;12365;43.554;1.388;2023-01-09T05:54:47;13.70;;;1.90;;
24233;SDS011;12365;43.554;1.388;2023-01-09T05:57:13;8.32;;;1.48;;
24233;SDS011;12365;43.554;1.388;2023-01-09T05:59:38;10.90;;;1.48;;
24233;SDS011;12365;43.554;1.388;2023-01-09T06:02:04;5.32;;;1.15;;
24233;SDS011;12365;43.554;1.388;2023-01-09T06:04:29;6.85;;;1.52;;
24233;SDS011;12365;43.554;1.388;2023-01-09T06:06:55;7.45;;;1.30;;
24233;SDS011;12365;43.554;1.388;2023-01-09T06:09:21;6.38;;;1.23;;
24233;SDS011;12365;43.554;1.388;2023-01-09T06:11:46;6.18;;;1.60;;
24233;SDS011;12365;43.554;1.388;2023-01-09T06:14:12;9.68;;;1.52;;
24233;SDS011;12365;43.554;1.388;2023-01-09T06:16:37;8.25;;;1.60;;
24233;SDS011;12365;43.554;1.388;2023-01-09T06:19:02;4.85;;;1.23;;
24233;SDS011;12365;43.554;1.388;2023-01-09T06:21:29;7.07;;;1.55;;
24233;SDS011;12365;43.554;1.388;2023-01-09T06:23:56;8.40;;;1.75;;
24233;SDS011;12365;43.554;1.388;2023-01-09T06:26:22;10.63;;;1.52;;
24233;SDS011;12365;43.554;1.388;2023-01-09T06:28:48;9.93;;;1.83;;
24233;SDS011;12365;43.554;1.388;2023-01-09T06:31:13;7.63;;;1.40;;
24233;SDS011;12365;43.554;1.388;2023-01-09T06:33:38;6.22;;;1.58;;
24233;SDS011;12365;43.554;1.388;2023-01-09T06:36:04;8.38;;;1.70;;
24233;SDS011;12365;43.554;1.388;2023-01-09T06:38:30;9.80;;;1.70;;
24233;SDS011;12365;43.554;1.388;2023-01-09T06:40:55;8.43;;;1.35;;
24233;SDS011;12365;43.554;1.388;2023-01-09T06:43:21;6.70;;;1.42;;
24233;SDS011;12365;43.554;1.388;2023-01-09T06:45:46;11.07;;;1.40;;
24233;SDS011;12365;43.554;1.388;2023-01-09T06:48:11;10.55;;;1.60;;
24233;SDS011;12365;43.554;1.388;2023-01-09T06:50:37;8.27;;;1.65;;
24233;SDS011;12365;43.554;1.388;2023-01-09T06:53:02;8.40;;;1.63;;
24233;SDS011;12365;43.554;1.388;2023-01-09T06:55:27;11.15;;;1.77;;
24233;SDS011;12365;43.554;1.388;2023-01-09T06:57:53;11.27;;;1.85;;
24233;SDS011;12365;43.554;1.388;2023-01-09T07:00:19;13.80;;;2.28;;
24233;SDS011;12365;43.554;1.388;2023-01-09T07:02:44;9.70;;;1.80;;
24233;SDS011;12365;43.554;1.388;2023-01-09T07:05:10;9.40;;;1.92;;
24233;SDS011;12365;43.554;1.388;2023-01-09T07:07:36;9.23;;;2.00;;
24233;SDS011;12365;43.554;1.388;2023-01-09T07:10:03;9.38;;;1.63;;
24233;SDS011;12365;43.554;1.388;2023-01-09T07:12:29;11.45;;;1.60;;
24233;SDS011;12365;43.554;1.388;2023-01-09T07:14:54;5.65;;;1.20;;
24233;SDS011;12365;43.554;1.388;2023-01-09T07:17:20;7.43;;;1.13;;
24233;SDS011;12365;43.554;1.388;2023-01-09T07:19:45;7.18;;;1.30;;
24233;SDS011;12365;43.554;1.388;2023-01-09T07:22:11;5.05;;;1.33;;
24233;SDS011;12365;43.554;1.388;2023-01-09T07:24:36;6.43;;;1.20;;
24233;SDS011;12365;43.554;1.388;2023-01-09T07:27:02;8.27;;;1.30;;
24233;SDS011;12365;43.554;1.388;2023-01-09T07:29:27;5.00;;;1.17;;
24233;SDS011;12365;43.554;1.388;2023-01-09T07:31:52;5.00;;;1.33;;
24233;SDS011;12365;43.554;1.388;2023-01-09T07:34:18;5.82;;;1.13;;
24233;SDS011;12365;43.554;1.388;2023-01-09T07:36:43;4.65;;;1.05;;
24233;SDS011;12365;43.554;1.388;2023-01-09T07:39:11;4.90;;;1.05;;
24233;SDS011;12365;43.554;1.388;2023-01-09T07:41:37;3.50;;;0.88;;
24233;SDS011;12365;43.554;1.388;2023-01-09T07:44:02;6.22;;;0.90;;
24233;SDS011;12365;43.554;1.388;2023-01-09T07:46:28;4.82;;;0.98;;
24233;SDS011;12365;43.554;1.388;2023-01-09T07:48:53;6.55;;;1.05;;
24233;SDS011;12365;43.554;1.388;2023-01-09T07:51:19;4.43;;;0.82;;
24233;SDS011;12365;43.554;1.388;2023-01-09T07:53:44;6.25;;;1.40;;
24233;SDS011;12365;43.554;1.388;2023-01-09T07:56:10;7.70;;;1.20;;
24233;SDS011;12365;43.554;1.388;2023-01-09T07:58:36;3.42;;;0.90;;
24233;SDS011;12365;43.554;1.388;2023-01-09T08:01:02;6.10;;;1.00;;
24233;SDS011;12365;43.554;1.388;2023-01-09T08:03:28;4.30;;;1.10;;
24233;SDS011;12365;43.554;1.388;2023-01-09T08:05:53;6.70;;;1.27;;
24233;SDS011;12365;43.554;1.388;2023-01-09T08:08:19;5.80;;;1.48;;
24233;SDS011;12365;43.554;1.388;2023-01-09T08:10:44;5.88;;;1.40;;
24233;SDS011;12365;43.554;1.388;2023-01-09T08:13:09;4.72;;;1.00;;
24233;SDS011;12365;43.554;1.388;2023-01-09T08:15:35;4.40;;;1.02;;
24233;SDS011;12365;43.554;1.388;2023-01-09T08:18:00;3.90;;;0.98;;
24233;SDS011;12365;43.554;1.388;2023-01-09T08:20:26;8.13;;;1.60;;
24233;SDS011;12365;43.554;1.388;2023-01-09T08:22:51;8.50;;;1.40;;
24233;SDS011;12365;43.554;1.388;2023-01-09T08:25:18;5.07;;;1.20;;
24233;SDS011;12365;43.554;1.388;2023-01-09T08:27:44;7.93;;;1.30;;
24233;SDS011;12365;43.554;1.388;2023-01-09T08:30:10;9.52;;;1.30;;
24233;SDS011;12365;43.554;1.388;2023-01-09T08:32:36;5.22;;;1.20;;
24233;SDS011;12365;43.554;1.388;2023-01-09T08:35:02;5.97;;;1.30;;
24233;SDS011;12365;43.554;1.388;2023-01-09T08:37:27;12.43;;;1.67;;
24233;SDS011;12365;43.554;1.388;2023-01-09T08:39:53;12.73;;;2.03;;
24233;SDS011;12365;43.554;1.388;2023-01-09T08:42:19;7.57;;;1.83;;
24233;SDS011;12365;43.554;1.388;2023-01-09T08:45:03;8.52;;;1.65;;
24233;SDS011;12365;43.554;1.388;2023-01-09T08:47:47;10.85;;;2.00;;
24233;SDS011;12365;43.554;1.388;2023-01-09T08:50:13;5.90;;;1.33;;
24233;SDS011;12365;43.554;1.388;2023-01-09T08:52:38;7.13;;;1.45;;
24233;SDS011;12365;43.554;1.388;2023-01-09T08:55:04;5.55;;;1.40;;
24233;SDS011;12365;43.554;1.388;2023-01-09T08:57:30;7.82;;;1.60;;
24233;SDS011;12365;43.554;1.388;2023-01-09T08:59:55;7.53;;;1.50;;
24233;SDS011;12365;43.554;1.388;2023-01-09T09:02:20;5.38;;;1.10;;
24233;SDS011;12365;43.554;1.388;2023-01-09T09:04:46;6.88;;;1.38;;
24233;SDS011;12365;43.554;1.388;2023-01-09T09:07:12;4.80;;;1.10;;
24233;SDS011;12365;43.554;1.388;2023-01-09T09:09:38;5.65;;;1.13;;
24233;SDS011;12365;43.554;1.388;2023-01-09T09:12:03;5.85;;;1.08;;
24233;SDS011;12365;43.554;1.388;2023-01-09T09:14:29;3.50;;;1.15;;
24233;SDS011;12365;43.554;1.388;2023-01-09T09:17:13;3.97;;;0.90;;
24233;SDS011;12365;43.554;1.388;2023-01-09T09:19:38;7.38;;;1.95;;
24233;SDS011;12365;43.554;1.388;2023-01-09T09:22:05;3.33;;;1.33;;
24233;SDS011;12365;43.554;1.388;2023-01-09T09:24:30;4.30;;;1.00;;
24233;SDS011;12365;43.554;1.388;2023-01-09T09:26:56;5.78;;;1.20;;
24233;SDS011;12365;43.554;1.388;2023-01-09T09:29:21;6.60;;;1.23;;
24233;SDS011;12365;43.554;1.388;2023-01-09T09:31:46;7.00;;;1.42;;
24233;SDS011;12365;43.554;1.388;2023-01-09T09:34:12;5.53;;;1.30;;
24233;SDS011;12365;43.554;1.388;2023-01-09T09:36:37;3.65;;;1.23;;
24233;SDS011;12365;43.554;1.388;2023-01-09T09:39:03;8.77;;;1.60;;
24233;SDS011;12365;43.554;1.388;2023-01-09T09:44:28;9.95;;;1.80;;
24233;SDS011;12365;43.554;1.388;2023-01-09T09:50:14;8.23;;;1.67;;
24233;SDS011;12365;43.554;1.388;2023-01-09T09:52:49;7.57;;;1.90;;
24233;SDS011;12365;43.554;1.388;2023-01-09T09:55:40;7.93;;;1.50;;
24233;SDS011;12365;43.554;1.388;2023-01-09T09:58:09;4.28;;;1.38;;
24233;SDS011;12365;43.554;1.388;2023-01-09T10:00:41;6.32;;;1.42;;
24233;SDS011;12365;43.554;1.388;2023-01-09T10:03:10;4.80;;;1.10;;
24233;SDS011;12365;43.554;1.388;2023-01-09T10:05:46;6.05;;;1.45;;
24233;SDS011;12365;43.554;1.388;2023-01-09T10:10:59;5.55;;;1.30;;
24233;SDS011;12365;43.554;1.388;2023-01-09T10:13:25;5.43;;;1.27;;
24233;SDS011;12365;43.554;1.388;2023-01-09T10:27:25;4.82;;;1.20;;
24233;SDS011;12365;43.554;1.388;2023-01-09T10:37:54;3.80;;;0.98;;
24233;SDS011;12365;43.554;1.388;2023-01-09T10:40:26;5.90;;;1.80;;
24233;SDS011;12365;43.554;1.388;2023-01-09T10:42:58;3.83;;;1.13;;
24233;SDS011;12365;43.554;1.388;2023-01-09T10:48:10;4.88;;;1.35;;
24233;SDS011;12365;43.554;1.388;2023-01-09T10:50:44;11.18;;;1.83;;
24233;SDS011;12365;43.554;1.388;2023-01-09T10:53:24;4.15;;;1.02;;
24233;SDS011;12365;43.554;1.388;2023-01-09T10:55:59;3.28;;;1.20;;
24233;SDS011;12365;43.554;1.388;2023-01-09T10:58:29;4.03;;;1.10;;
24233;SDS011;12365;43.554;1.388;2023-01-09T11:00:54;4.70;;;1.20;;
24233;SDS011;12365;43.554;1.388;2023-01-09T11:03:25;5.00;;;1.10;;
24233;SDS011;12365;43.554;1.388;2023-01-09T11:05:52;4.88;;;1.27;;
24233;SDS011;12365;43.554;1.388;2023-01-09T11:11:05;8.07;;;1.23;;
24233;SDS011;12365;43.554;1.388;2023-01-09T11:13:32;3.25;;;0.90;;
24233;SDS011;12365;43.554;1.388;2023-01-09T11:16:00;5.18;;;1.25;;
24233;SDS011;12365;43.554;1.388;2023-01-09T11:18:33;4.50;;;1.10;;
24233;SDS011;12365;43.554;1.388;2023-01-09T11:21:12;3.30;;;0.88;;
24233;SDS011;12365;43.554;1.388;2023-01-09T11:23:44;3.45;;;1.00;;
24233;SDS011;12365;43.554;1.388;2023-01-09T11:26:19;3.35;;;0.90;;
24233;SDS011;12365;43.554;1.388;2023-01-09T11:29:05;5.75;;;1.00;;
24233;SDS011;12365;43.554;1.388;2023-01-09T11:31:39;3.95;;;0.90;;
24233;SDS011;12365;43.554;1.388;2023-01-09T11:34:11;2.28;;;0.77;;
24233;SDS011;12365;43.554;1.388;2023-01-09T11:36:44;2.45;;;0.65;;
24233;SDS011;12365;43.554;1.388;2023-01-09T11:39:18;2.15;;;0.68;;
24233;SDS011;12365;43.554;1.388;2023-01-09T11:42:00;2.28;;;0.82;;
24233;SDS011;12365;43.554;1.388;2023-01-09T11:44:28;3.60;;;0.75;;
24233;SDS011;12365;43.554;1.388;2023-01-09T11:46:55;2.60;;;0.80;;
24233;SDS011;12365;43.554;1.388;2023-01-09T11:49:24;1.80;;;0.70;;
24233;SDS011;12365;43.554;1.388;2023-01-09T11:52:10;2.53;;;0.75;;
24233;SDS011;12365;43.554;1.388;2023-01-09T11:54:40;5.60;;;1.20;;
24233;SDS011;12365;43.554;1.388;2023-01-09T11:57:16;9.10;;;1.30;;
24233;SDS011;12365;43.554;1.388;2023-01-09T11:59:42;3.22;;;1.00;;
24233;SDS011;12365;43.554;1.388;2023-01-09T12:18:12;3.38;;;1.10;;
24233;SDS011;12365;43.554;1.388;2023-01-09T12:20:54;4.80;;;2.42;;
24233;SDS011;12365;43.554;1.388;2023-01-09T12:29:22;2.10;;;0.75;;
24233;SDS011;12365;43.554;1.388;2023-01-09T12:45:40;2.33;;;1.02;;
24233;SDS011;12365;43.554;1.388;2023-01-09T12:48:30;4.40;;;1.50;;
24233;SDS011;12365;43.554;1.388;2023-01-09T12:51:15;2.75;;;0.85;;
24233;SDS011;12365;43.554;1.388;2023-01-09T12:56:28;6.65;;;0.77;;
24233;SDS011;12365;43.554;1.388;2023-01-09T13:01:54;5.40;;;0.73;;
24233;SDS011;12365;43.554;1.388;2023-01-09T13:04:29;2.38;;;0.95;;
24233;SDS011;12365;43.554;1.388;2023-01-09T13:09:42;4.20;;;1.50;;
24233;SDS011;12365;43.554;1.388;2023-01-09T13:12:14;4.43;;;1.52;;
24233;SDS011;12365;43.554;1.388;2023-01-09T13:17:29;5.03;;;1.13;;
24233;SDS011;12365;43.554;1.388;2023-01-09T13:20:00;6.30;;;1.90;;
24233;SDS011;12365;43.554;1.388;2023-01-09T13:22:26;5.38;;;1.23;;
24233;SDS011;12365;43.554;1.388;2023-01-09T13:27:27;9.25;;;1.98;;
24233;SDS011;12365;43.554;1.388;2023-01-09T13:35:15;7.75;;;2.30;;
24233;SDS011;12365;43.554;1.388;2023-01-09T13:37:40;6.95;;;1.45;;
24233;SDS011;12365;43.554;1.388;2023-01-09T13:42:57;7.07;;;1.58;;
24233;SDS011;12365;43.554;1.388;2023-01-09T13:45:27;9.45;;;2.92;;
24233;SDS011;12365;43.554;1.388;2023-01-09T13:50:35;7.47;;;2.92;;
24233;SDS011;12365;43.554;1.388;2023-01-09T13:58:29;7.25;;;1.48;;
24233;SDS011;12365;43.554;1.388;2023-01-09T14:01:02;5.72;;;1.20;;
24233;SDS011;12365;43.554;1.388;2023-01-09T14:03:30;6.28;;;1.60;;
24233;SDS011;12365;43.554;1.388;2023-01-09T14:08:25;7.15;;;2.40;;
24233;SDS011;12365;43.554;1.388;2023-01-09T14:10:53;7.50;;;1.35;;
24233;SDS011;12365;43.554;1.388;2023-01-09T14:15:47;7.85;;;1.45;;
24233;SDS011;12365;43.554;1.388;2023-01-09T14:18:31;10.60;;;1.50;;
24233;SDS011;12365;43.554;1.388;2023-01-09T14:20:59;7.32;;;1.50;;
24233;SDS011;12365;43.554;1.388;2023-01-09T14:23:27;8.13;;;1.65;;
24233;SDS011;12365;43.554;1.388;2023-01-09T14:25:57;9.45;;;2.13;;
24233;SDS011;12365;43.554;1.388;2023-01-09T14:28:25;9.88;;;2.10;;
24233;SDS011;12365;43.554;1.388;2023-01-09T14:36:02;8.60;;;2.00;;
24233;SDS011;12365;43.554;1.388;2023-01-09T14:38:59;9.02;;;2.58;;
24233;SDS011;12365;43.554;1.388;2023-01-09T14:41:44;10.35;;;4.55;;
24233;SDS011;12365;43.554;1.388;2023-01-09T14:47:20;7.80;;;1.92;;
24233;SDS011;12365;43.554;1.388;2023-01-09T14:49:54;16.38;;;5.70;;
24233;SDS011;12365;43.554;1.388;2023-01-09T14:52:38;12.85;;;2.20;;
24233;SDS011;12365;43.554;1.388;2023-01-09T14:55:15;8.88;;;2.88;;
24233;SDS011;12365;43.554;1.388;2023-01-09T14:57:44;17.20;;;7.00;;
24233;SDS011;12365;43.554;1.388;2023-01-09T15:00:15;12.18;;;2.60;;
24233;SDS011;12365;43.554;1.388;2023-01-09T15:02:41;15.57;;;5.72;;
24233;SDS011;12365;43.554;1.388;2023-01-09T15:05:12;19.27;;;7.03;;
24233;SDS011;12365;43.554;1.388;2023-01-09T15:07:47;11.98;;;4.88;;
24233;SDS011;12365;43.554;1.388;2023-01-09T15:10:21;10.55;;;2.03;;
24233;SDS011;12365;43.554;1.388;2023-01-09T15:12:49;18.85;;;6.15;;
24233;SDS011;12365;43.554;1.388;2023-01-09T15:15:17;25.08;;;9.88;;
24233;SDS011;12365;43.554;1.388;2023-01-09T15:17:52;15.57;;;3.10;;
24233;SDS011;12365;43.554;1.388;2023-01-09T15:20:27;15.20;;;5.38;;
24233;SDS011;12365;43.554;1.388;2023-01-09T15:22:55;9.57;;;1.88;;
24233;SDS011;12365;43.554;1.388;2023-01-09T15:27:52;9.80;;;2.08;;
24233;SDS011;12365;43.554;1.388;2023-01-09T15:30:25;10.25;;;2.42;;
24233;SDS011;12365;43.554;1.388;2023-01-09T15:33:02;9.57;;;2.70;;
24233;SDS011;12365;43.554;1.388;2023-01-09T15:35:34;7.38;;;2.17;;
24233;SDS011;12365;43.554;1.388;2023-01-09T15:38:00;9.73;;;2.50;;
24233;SDS011;12365;43.554;1.388;2023-01-09T15:40:29;11.25;;;3.70;;
24233;SDS011;12365;43.554;1.388;2023-01-09T15:42:58;15.80;;;3.67;;
24233;SDS011;12365;43.554;1.388;2023-01-09T15:45:26;9.02;;;2.42;;
24233;SDS011;12365;43.554;1.388;2023-01-09T15:48:42;15.93;;;3.00;;
24233;SDS011;12365;43.554;1.388;2023-01-09T15:50:51;9.30;;;2.42;;
24233;SDS011;12365;43.554;1.388;2023-01-09T15:53:21;11.10;;;2.43;;
24233;SDS011;12365;43.554;1.388;2023-01-09T15:58:36;8.93;;;2.58;;
24233;SDS011;12365;43.554;1.388;2023-01-09T16:01:30;12.73;;;2.58;;
24233;SDS011;12365;43.554;1.388;2023-01-09T16:06:33;15.25;;;6.18;;
24233;SDS011;12365;43.554;1.388;2023-01-09T16:09:01;9.23;;;2.03;;
24233;SDS011;12365;43.554;1.388;2023-01-09T16:11:35;12.60;;;4.70;;
24233;SDS011;12365;43.554;1.388;2023-01-09T16:16:51;10.25;;;2.92;;
24233;SDS011;12365;43.554;1.388;2023-01-09T16:19:28;9.73;;;3.17;;
24233;SDS011;12365;43.554;1.388;2023-01-09T16:22:21;9.90;;;3.00;;
24233;SDS011;12365;43.554;1.388;2023-01-09T16:24:47;10.77;;;2.10;;
24233;SDS011;12365;43.554;1.388;2023-01-09T16:29:48;11.02;;;2.60;;
24233;SDS011;12365;43.554;1.388;2023-01-09T16:32:28;9.23;;;2.00;;
24233;SDS011;12365;43.554;1.388;2023-01-09T16:34:59;9.32;;;2.15;;
24233;SDS011;12365;43.554;1.388;2023-01-09T16:37:29;12.57;;;2.03;;
24233;SDS011;12365;43.554;1.388;2023-01-09T16:40:41;10.60;;;2.58;;
24233;SDS011;12365;43.554;1.388;2023-01-09T16:42:42;10.55;;;2.60;;
24233;SDS011;12365;43.554;1.388;2023-01-09T16:45:37;10.90;;;2.20;;
24233;SDS011;12365;43.554;1.388;2023-01-09T16:48:14;14.88;;;2.20;;
24233;SDS011;12365;43.554;1.388;2023-01-09T16:50:41;10.52;;;2.40;;
24233;SDS011;12365;43.554;1.388;2023-01-09T16:53:14;12.35;;;2.97;;
24233;SDS011;12365;43.554;1.388;2023-01-09T16:55:41;15.82;;;2.80;;
24233;SDS011;12365;43.554;1.388;2023-01-09T16:58:07;11.82;;;2.95;;
24233;SDS011;12365;43.554;1.388;2023-01-09T17:00:38;13.27;;;3.30;;
24233;SDS011;12365;43.554;1.388;2023-01-09T17:03:03;12.82;;;2.88;;
24233;SDS011;12365;43.554;1.388;2023-01-09T17:05:28;13.73;;;3.15;;
24233;SDS011;12365;43.554;1.388;2023-01-09T17:07:54;12.13;;;3.03;;
24233;SDS011;12365;43.554;1.388;2023-01-09T17:10:20;21.10;;;3.28;;
24233;SDS011;12365;43.554;1.388;2023-01-09T17:12:46;11.85;;;2.55;;
24233;SDS011;12365;43.554;1.388;2023-01-09T17:15:13;15.05;;;3.00;;
24233;SDS011;12365;43.554;1.388;2023-01-09T17:17:38;10.98;;;2.70;;
24233;SDS011;12365;43.554;1.388;2023-01-09T17:20:12;14.88;;;2.75;;
24233;SDS011;12365;43.554;1.388;2023-01-09T17:22:40;13.63;;;2.65;;
24233;SDS011;12365;43.554;1.388;2023-01-09T17:25:05;14.75;;;3.50;;
24233;SDS011;12365;43.554;1.388;2023-01-09T17:27:49;18.70;;;4.75;;
24233;SDS011;12365;43.554;1.388;2023-01-09T17:30:33;16.23;;;4.28;;
24233;SDS011;12365;43.554;1.388;2023-01-09T17:32:59;12.68;;;3.22;;
24233;SDS011;12365;43.554;1.388;2023-01-09T17:35:24;16.35;;;3.45;;